sensor_id;sensor_type;location;lat;lon;timestamp;P1;durP1;ratioP1;P2;durP2;ratioP2
64018;SDS011;66942;52.138;5.216;2023-11-21T00:01:09;36.71;;;24.3;;
64018;SDS011;66942;52.138;5.216;2023-11-21T00:04:22;28.5;;;19.91;;
64018;SDS011;66942;52.138;5.216;2023-11-21T00:05:58;34.5;;;21.6;;
64018;SDS011;66942;52.138;5.216;2023-11-21T00:07:35;33.1;;;23.3;;
64018;SDS011;66942;52.138;5.216;2023-11-21T00:10:47;50.9;;;28.2;;
64018;SDS011;66942;52.138;5.216;2023-11-21T00:12:23;54.1;;;29.0;;
64018;SDS011;66942;52.138;5.216;2023-11-21T00:13:59;44.0;;;25.3;;
64018;SDS011;66942;52.138;5.216;2023-11-21T00:15:35;38.9;;;23.5;;
64018;SDS011;66942;52.138;5.216;2023-11-21T00:18:47;45.6;;;27.0;;
64018;SDS011;66942;52.138;5.216;2023-11-21T00:20:23;41.6;;;24.0;;
64018;SDS011;66942;52.138;5.216;2023-11-21T00:21:59;43.6;;;25.1;;
64018;SDS011;66942;52.138;5.216;2023-11-21T00:25:12;43.0;;;24.1;;
64018;SDS011;66942;52.138;5.216;2023-11-21T00:26:49;43.7;;;24.5;;
64018;SDS011;66942;52.138;5.216;2023-11-21T00:28:25;43.0;;;24.8;;
64018;SDS011;66942;52.138;5.216;2023-11-21T00:31:39;45.5;;;25.6;;
64018;SDS011;66942;52.138;5.216;2023-11-21T00:33:15;37.6;;;22.3;;
64018;SDS011;66942;52.138;5.216;2023-11-21T00:34:51;32.3;;;22.3;;
64018;SDS011;66942;52.138;5.216;2023-11-21T00:36:27;50.8;;;26.1;;
64018;SDS011;66942;52.138;5.216;2023-11-21T00:39:39;38.4;;;23.5;;
64018;SDS011;66942;52.138;5.216;2023-11-21T00:41:15;38.31;;;23.3;;
64018;SDS011;66942;52.138;5.216;2023-11-21T00:42:51;33.8;;;22.7;;
64018;SDS011;66942;52.138;5.216;2023-11-21T00:46:04;48.3;;;26.5;;
64018;SDS011;66942;52.138;5.216;2023-11-21T00:47:40;39.71;;;24.1;;
64018;SDS011;66942;52.138;5.216;2023-11-21T00:49:16;27.9;;;21.0;;
64018;SDS011;66942;52.138;5.216;2023-11-21T00:52:28;34.81;;;21.4;;
64018;SDS011;66942;52.138;5.216;2023-11-21T00:54:04;43.1;;;25.6;;
64018;SDS011;66942;52.138;5.216;2023-11-21T00:55:41;43.8;;;25.3;;
64018;SDS011;66942;52.138;5.216;2023-11-21T00:58:54;48.1;;;26.7;;
64018;SDS011;66942;52.138;5.216;2023-11-21T01:00:29;39.81;;;24.2;;
64018;SDS011;66942;52.138;5.216;2023-11-21T01:02:06;43.3;;;24.6;;
64018;SDS011;66942;52.138;5.216;2023-11-21T01:03:42;33.5;;;22.6;;
64018;SDS011;66942;52.138;5.216;2023-11-21T01:06:54;37.81;;;23.9;;
64018;SDS011;66942;52.138;5.216;2023-11-21T01:08:30;51.8;;;27.9;;
64018;SDS011;66942;52.138;5.216;2023-11-21T01:10:06;42.7;;;26.3;;
64018;SDS011;66942;52.138;5.216;2023-11-21T01:13:19;59.7;;;30.6;;
64018;SDS011;66942;52.138;5.216;2023-11-21T01:14:55;58.7;;;30.2;;
64018;SDS011;66942;52.138;5.216;2023-11-21T01:16:31;26.4;;;21.6;;
64018;SDS011;66942;52.138;5.216;2023-11-21T01:19:43;29.7;;;22.4;;
64018;SDS011;66942;52.138;5.216;2023-11-21T01:21:20;58.7;;;31.3;;
64018;SDS011;66942;52.138;5.216;2023-11-21T01:22:56;48.1;;;27.9;;
64018;SDS011;66942;52.138;5.216;2023-11-21T01:24:32;67.7;;;33.4;;
64018;SDS011;66942;52.138;5.216;2023-11-21T01:27:44;55.8;;;30.8;;
64018;SDS011;66942;52.138;5.216;2023-11-21T01:29:20;76.8;;;34.71;;
64018;SDS011;66942;52.138;5.216;2023-11-21T01:30:56;55.7;;;30.6;;
64018;SDS011;66942;52.138;5.216;2023-11-21T01:34:08;56.7;;;30.8;;
64018;SDS011;66942;52.138;5.216;2023-11-21T01:35:44;72.2;;;33.9;;
64018;SDS011;66942;52.138;5.216;2023-11-21T01:37:20;70.7;;;35.21;;
64018;SDS011;66942;52.138;5.216;2023-11-21T01:40:33;56.1;;;31.2;;
64018;SDS011;66942;52.138;5.216;2023-11-21T01:42:09;50.4;;;28.6;;
64018;SDS011;66942;52.138;5.216;2023-11-21T01:43:45;30.6;;;24.7;;
64018;SDS011;66942;52.138;5.216;2023-11-21T01:46:57;40.6;;;27.2;;
64018;SDS011;66942;52.138;5.216;2023-11-21T01:48:33;76.8;;;36.81;;
64018;SDS011;66942;52.138;5.216;2023-11-21T01:50:12;61.3;;;33.5;;
64018;SDS011;66942;52.138;5.216;2023-11-21T01:51:51;85.8;;;37.0;;
64018;SDS011;66942;52.138;5.216;2023-11-21T01:55:04;82.1;;;37.9;;
64018;SDS011;66942;52.138;5.216;2023-11-21T01:56:43;61.1;;;32.6;;
64018;SDS011;66942;52.138;5.216;2023-11-21T01:58:21;43.5;;;28.5;;
64018;SDS011;66942;52.138;5.216;2023-11-21T02:01:37;51.6;;;29.0;;
64018;SDS011;66942;52.138;5.216;2023-11-21T02:03:13;32.3;;;24.8;;
64018;SDS011;66942;52.138;5.216;2023-11-21T02:04:49;56.8;;;31.2;;
64018;SDS011;66942;52.138;5.216;2023-11-21T02:06:25;63.6;;;31.3;;
64018;SDS011;66942;52.138;5.216;2023-11-21T02:09:37;61.6;;;32.4;;
64018;SDS011;66942;52.138;5.216;2023-11-21T02:11:13;37.21;;;25.5;;
64018;SDS011;66942;52.138;5.216;2023-11-21T02:12:49;43.8;;;27.5;;
64018;SDS011;66942;52.138;5.216;2023-11-21T02:16:04;45.2;;;26.6;;
64018;SDS011;66942;52.138;5.216;2023-11-21T02:17:41;34.1;;;24.2;;
64018;SDS011;66942;52.138;5.216;2023-11-21T02:19:17;33.3;;;24.3;;
64018;SDS011;66942;52.138;5.216;2023-11-21T02:22:32;67.5;;;33.8;;
64018;SDS011;66942;52.138;5.216;2023-11-21T02:24:15;62.7;;;32.71;;
64018;SDS011;66942;52.138;5.216;2023-11-21T02:25:51;51.0;;;30.1;;
64018;SDS011;66942;52.138;5.216;2023-11-21T02:27:27;62.5;;;32.8;;
64018;SDS011;66942;52.138;5.216;2023-11-21T02:30:39;49.9;;;29.4;;
64018;SDS011;66942;52.138;5.216;2023-11-21T02:32:16;48.8;;;27.2;;
64018;SDS011;66942;52.138;5.216;2023-11-21T02:33:52;50.5;;;29.6;;
64018;SDS011;66942;52.138;5.216;2023-11-21T02:37:04;40.81;;;26.0;;
64018;SDS011;66942;52.138;5.216;2023-11-21T02:38:40;31.2;;;23.0;;
64018;SDS011;66942;52.138;5.216;2023-11-21T02:40:16;50.4;;;28.8;;
64018;SDS011;66942;52.138;5.216;2023-11-21T02:43:28;60.8;;;31.5;;
64018;SDS011;66942;52.138;5.216;2023-11-21T02:45:05;56.4;;;30.3;;
64018;SDS011;66942;52.138;5.216;2023-11-21T02:46:42;49.1;;;28.1;;
64018;SDS011;66942;52.138;5.216;2023-11-21T02:48:18;55.0;;;29.2;;
64018;SDS011;66942;52.138;5.216;2023-11-21T02:51:31;57.0;;;28.8;;
64018;SDS011;66942;52.138;5.216;2023-11-21T02:53:08;43.3;;;24.8;;
64018;SDS011;66942;52.138;5.216;2023-11-21T02:54:44;46.5;;;27.5;;
64018;SDS011;66942;52.138;5.216;2023-11-21T02:57:56;61.1;;;30.1;;
64018;SDS011;66942;52.138;5.216;2023-11-21T02:59:32;57.5;;;29.6;;
64018;SDS011;66942;52.138;5.216;2023-11-21T03:01:08;53.0;;;27.8;;
64018;SDS011;66942;52.138;5.216;2023-11-21T03:04:20;61.9;;;31.8;;
64018;SDS011;66942;52.138;5.216;2023-11-21T03:05:56;60.4;;;30.5;;
64018;SDS011;66942;52.138;5.216;2023-11-21T03:07:32;69.7;;;31.5;;
64018;SDS011;66942;52.138;5.216;2023-11-21T03:09:09;51.4;;;27.9;;
64018;SDS011;66942;52.138;5.216;2023-11-21T03:12:21;33.4;;;22.4;;
64018;SDS011;66942;52.138;5.216;2023-11-21T03:13:57;33.0;;;22.9;;
64018;SDS011;66942;52.138;5.216;2023-11-21T03:15:33;23.3;;;19.3;;
64018;SDS011;66942;52.138;5.216;2023-11-21T03:18:45;19.61;;;17.5;;
64018;SDS011;66942;52.138;5.216;2023-11-21T03:20:21;27.2;;;21.4;;
64018;SDS011;66942;52.138;5.216;2023-11-21T03:21:57;57.7;;;28.8;;
64018;SDS011;66942;52.138;5.216;2023-11-21T03:25:09;55.0;;;27.5;;
64018;SDS011;66942;52.138;5.216;2023-11-21T03:26:46;45.8;;;25.4;;
64018;SDS011;66942;52.138;5.216;2023-11-21T03:28:22;52.3;;;27.3;;
64018;SDS011;66942;52.138;5.216;2023-11-21T03:31:34;42.0;;;24.4;;
64018;SDS011;66942;52.138;5.216;2023-11-21T03:33:10;38.6;;;24.5;;
64018;SDS011;66942;52.138;5.216;2023-11-21T03:34:53;25.8;;;19.11;;
64018;SDS011;66942;52.138;5.216;2023-11-21T03:36:31;23.4;;;19.0;;
64018;SDS011;66942;52.138;5.216;2023-11-21T03:39:45;34.4;;;21.9;;
64018;SDS011;66942;52.138;5.216;2023-11-21T03:41:21;44.6;;;24.8;;
64018;SDS011;66942;52.138;5.216;2023-11-21T03:42:57;72.8;;;28.0;;
64018;SDS011;66942;52.138;5.216;2023-11-21T03:46:10;53.0;;;27.1;;
64018;SDS011;66942;52.138;5.216;2023-11-21T03:47:46;47.0;;;25.6;;
64018;SDS011;66942;52.138;5.216;2023-11-21T03:49:22;37.31;;;22.1;;
64018;SDS011;66942;52.138;5.216;2023-11-21T03:52:34;48.0;;;25.0;;
64018;SDS011;66942;52.138;5.216;2023-11-21T03:54:10;48.5;;;25.7;;
64018;SDS011;66942;52.138;5.216;2023-11-21T03:55:46;44.1;;;25.1;;
64018;SDS011;66942;52.138;5.216;2023-11-21T03:57:22;46.7;;;25.6;;
64018;SDS011;66942;52.138;5.216;2023-11-21T04:00:34;43.4;;;24.0;;
64018;SDS011;66942;52.138;5.216;2023-11-21T04:02:10;31.3;;;20.2;;
64018;SDS011;66942;52.138;5.216;2023-11-21T04:03:47;29.2;;;19.8;;
64018;SDS011;66942;52.138;5.216;2023-11-21T04:06:59;42.6;;;24.6;;
64018;SDS011;66942;52.138;5.216;2023-11-21T04:08:35;46.5;;;23.7;;
64018;SDS011;66942;52.138;5.216;2023-11-21T04:10:11;40.71;;;24.1;;
64018;SDS011;66942;52.138;5.216;2023-11-21T04:13:23;33.3;;;21.6;;
64018;SDS011;66942;52.138;5.216;2023-11-21T04:14:59;38.5;;;22.5;;
64018;SDS011;66942;52.138;5.216;2023-11-21T04:16:35;29.3;;;19.41;;
64018;SDS011;66942;52.138;5.216;2023-11-21T04:18:11;18.11;;;16.2;;
64018;SDS011;66942;52.138;5.216;2023-11-21T04:21:24;50.2;;;25.7;;
64018;SDS011;66942;52.138;5.216;2023-11-21T04:23:00;32.1;;;21.1;;
64018;SDS011;66942;52.138;5.216;2023-11-21T04:24:36;29.5;;;21.0;;
64018;SDS011;66942;52.138;5.216;2023-11-21T04:27:48;21.1;;;17.0;;
64018;SDS011;66942;52.138;5.216;2023-11-21T04:29:24;16.5;;;14.9;;
64018;SDS011;66942;52.138;5.216;2023-11-21T04:31:00;17.2;;;15.4;;
64018;SDS011;66942;52.138;5.216;2023-11-21T04:34:12;22.7;;;17.7;;
64018;SDS011;66942;52.138;5.216;2023-11-21T04:35:48;44.2;;;23.5;;
64018;SDS011;66942;52.138;5.216;2023-11-21T04:37:24;21.3;;;16.8;;
64018;SDS011;66942;52.138;5.216;2023-11-21T04:40:37;29.9;;;20.0;;
64018;SDS011;66942;52.138;5.216;2023-11-21T04:42:13;34.71;;;22.3;;
64018;SDS011;66942;52.138;5.216;2023-11-21T04:43:49;39.31;;;23.7;;
64018;SDS011;66942;52.138;5.216;2023-11-21T04:45:25;36.4;;;22.5;;
64018;SDS011;66942;52.138;5.216;2023-11-21T04:48:38;25.5;;;18.3;;
64018;SDS011;66942;52.138;5.216;2023-11-21T04:50:14;19.7;;;15.8;;
64018;SDS011;66942;52.138;5.216;2023-11-21T04:51:50;28.5;;;18.7;;
64018;SDS011;66942;52.138;5.216;2023-11-21T04:55:03;41.2;;;21.8;;
64018;SDS011;66942;52.138;5.216;2023-11-21T04:56:40;26.8;;;18.41;;
64018;SDS011;66942;52.138;5.216;2023-11-21T04:58:16;38.0;;;23.0;;
64018;SDS011;66942;52.138;5.216;2023-11-21T05:01:29;36.6;;;21.6;;
64018;SDS011;66942;52.138;5.216;2023-11-21T05:03:06;53.5;;;24.7;;
64018;SDS011;66942;52.138;5.216;2023-11-21T05:04:42;42.0;;;22.8;;
64018;SDS011;66942;52.138;5.216;2023-11-21T05:06:18;29.9;;;19.91;;
64018;SDS011;66942;52.138;5.216;2023-11-21T05:09:30;36.31;;;22.0;;
64018;SDS011;66942;52.138;5.216;2023-11-21T05:11:06;35.6;;;22.7;;
64018;SDS011;66942;52.138;5.216;2023-11-21T05:12:42;31.2;;;20.41;;
64018;SDS011;66942;52.138;5.216;2023-11-21T05:15:55;36.6;;;20.3;;
64018;SDS011;66942;52.138;5.216;2023-11-21T05:17:32;28.2;;;20.2;;
64018;SDS011;66942;52.138;5.216;2023-11-21T05:19:08;30.6;;;20.3;;
64018;SDS011;66942;52.138;5.216;2023-11-21T05:22:20;21.3;;;15.6;;
64018;SDS011;66942;52.138;5.216;2023-11-21T05:23:56;24.1;;;16.7;;
64018;SDS011;66942;52.138;5.216;2023-11-21T05:25:33;24.4;;;18.7;;
64018;SDS011;66942;52.138;5.216;2023-11-21T05:28:45;30.3;;;20.0;;
64018;SDS011;66942;52.138;5.216;2023-11-21T05:30:21;28.5;;;19.91;;
64018;SDS011;66942;52.138;5.216;2023-11-21T05:31:58;42.1;;;23.8;;
64018;SDS011;66942;52.138;5.216;2023-11-21T05:33:34;29.9;;;20.11;;
64018;SDS011;66942;52.138;5.216;2023-11-21T05:36:46;28.0;;;19.3;;
64018;SDS011;66942;52.138;5.216;2023-11-21T05:38:22;34.21;;;20.7;;
64018;SDS011;66942;52.138;5.216;2023-11-21T05:39:58;13.6;;;12.4;;
64018;SDS011;66942;52.138;5.216;2023-11-21T05:43:10;26.0;;;17.5;;
64018;SDS011;66942;52.138;5.216;2023-11-21T05:44:46;32.3;;;20.3;;
64018;SDS011;66942;52.138;5.216;2023-11-21T05:46:22;16.2;;;14.5;;
64018;SDS011;66942;52.138;5.216;2023-11-21T05:49:34;21.3;;;14.1;;
64018;SDS011;66942;52.138;5.216;2023-11-21T05:51:11;37.1;;;21.3;;
64018;SDS011;66942;52.138;5.216;2023-11-21T05:52:47;33.8;;;20.41;;
64018;SDS011;66942;52.138;5.216;2023-11-21T05:55:59;22.4;;;17.41;;
64018;SDS011;66942;52.138;5.216;2023-11-21T05:57:36;38.4;;;20.8;;
64018;SDS011;66942;52.138;5.216;2023-11-21T05:59:14;34.21;;;20.41;;
64018;SDS011;66942;52.138;5.216;2023-11-21T06:00:50;21.3;;;16.2;;
64018;SDS011;66942;52.138;5.216;2023-11-21T06:04:02;26.9;;;17.0;;
64018;SDS011;66942;52.138;5.216;2023-11-21T06:05:38;17.61;;;14.7;;
64018;SDS011;66942;52.138;5.216;2023-11-21T06:07:14;14.8;;;13.3;;
64018;SDS011;66942;52.138;5.216;2023-11-21T06:10:27;33.8;;;18.5;;
64018;SDS011;66942;52.138;5.216;2023-11-21T06:12:03;35.5;;;20.0;;
64018;SDS011;66942;52.138;5.216;2023-11-21T06:13:39;26.3;;;17.2;;
64018;SDS011;66942;52.138;5.216;2023-11-21T06:16:51;29.2;;;18.2;;
64018;SDS011;66942;52.138;5.216;2023-11-21T06:18:27;34.31;;;18.61;;
64018;SDS011;66942;52.138;5.216;2023-11-21T06:20:03;28.2;;;18.41;;
64018;SDS011;66942;52.138;5.216;2023-11-21T06:21:44;34.4;;;19.5;;
64018;SDS011;66942;52.138;5.216;2023-11-21T06:24:57;30.1;;;17.8;;
64018;SDS011;66942;52.138;5.216;2023-11-21T06:26:33;35.1;;;19.7;;
64018;SDS011;66942;52.138;5.216;2023-11-21T06:28:10;17.61;;;14.2;;
64018;SDS011;66942;52.138;5.216;2023-11-21T06:31:22;30.4;;;18.61;;
64018;SDS011;66942;52.138;5.216;2023-11-21T06:32:58;28.0;;;18.2;;
64018;SDS011;66942;52.138;5.216;2023-11-21T06:34:34;13.9;;;12.5;;
64018;SDS011;66942;52.138;5.216;2023-11-21T06:37:46;29.5;;;17.5;;
64018;SDS011;66942;52.138;5.216;2023-11-21T06:39:22;21.4;;;14.9;;
64018;SDS011;66942;52.138;5.216;2023-11-21T06:40:58;25.4;;;16.9;;
64018;SDS011;66942;52.138;5.216;2023-11-21T06:42:34;17.41;;;14.1;;
64018;SDS011;66942;52.138;5.216;2023-11-21T06:45:47;31.7;;;18.3;;
64018;SDS011;66942;52.138;5.216;2023-11-21T06:47:23;25.2;;;16.2;;
64018;SDS011;66942;52.138;5.216;2023-11-21T06:48:59;16.4;;;13.3;;
64018;SDS011;66942;52.138;5.216;2023-11-21T06:52:11;31.2;;;19.11;;
64018;SDS011;66942;52.138;5.216;2023-11-21T06:53:47;19.5;;;13.8;;
64018;SDS011;66942;52.138;5.216;2023-11-21T06:55:23;34.9;;;20.0;;
64018;SDS011;66942;52.138;5.216;2023-11-21T06:58:35;20.0;;;15.5;;
64018;SDS011;66942;52.138;5.216;2023-11-21T07:00:12;16.3;;;13.2;;
64018;SDS011;66942;52.138;5.216;2023-11-21T07:01:50;16.61;;;13.8;;
64018;SDS011;66942;52.138;5.216;2023-11-21T07:03:27;33.8;;;18.41;;
64018;SDS011;66942;52.138;5.216;2023-11-21T07:06:40;32.3;;;19.3;;
64018;SDS011;66942;52.138;5.216;2023-11-21T07:08:16;18.11;;;15.1;;
64018;SDS011;66942;52.138;5.216;2023-11-21T07:09:52;26.3;;;16.7;;
64018;SDS011;66942;52.138;5.216;2023-11-21T07:13:04;31.1;;;16.4;;
64018;SDS011;66942;52.138;5.216;2023-11-21T07:14:40;33.3;;;19.11;;
64018;SDS011;66942;52.138;5.216;2023-11-21T07:16:16;29.3;;;19.2;;
64018;SDS011;66942;52.138;5.216;2023-11-21T07:19:28;41.6;;;20.3;;
64018;SDS011;66942;52.138;5.216;2023-11-21T07:21:04;24.8;;;17.2;;
64018;SDS011;66942;52.138;5.216;2023-11-21T07:22:41;20.2;;;16.3;;
64018;SDS011;66942;52.138;5.216;2023-11-21T07:25:53;26.9;;;17.5;;
64018;SDS011;66942;52.138;5.216;2023-11-21T07:27:29;26.9;;;17.5;;
64018;SDS011;66942;52.138;5.216;2023-11-21T07:29:05;16.0;;;13.2;;
64018;SDS011;66942;52.138;5.216;2023-11-21T07:30:42;50.6;;;23.4;;
64018;SDS011;66942;52.138;5.216;2023-11-21T07:33:54;27.4;;;17.7;;
64018;SDS011;66942;52.138;5.216;2023-11-21T07:35:31;27.5;;;18.3;;
64018;SDS011;66942;52.138;5.216;2023-11-21T07:37:07;29.3;;;18.91;;
64018;SDS011;66942;52.138;5.216;2023-11-21T07:40:20;25.2;;;17.7;;
64018;SDS011;66942;52.138;5.216;2023-11-21T07:41:56;33.71;;;19.8;;
64018;SDS011;66942;52.138;5.216;2023-11-21T07:43:32;32.4;;;19.2;;
64018;SDS011;66942;52.138;5.216;2023-11-21T07:46:44;14.2;;;12.9;;
64018;SDS011;66942;52.138;5.216;2023-11-21T07:48:20;33.21;;;18.61;;
64018;SDS011;66942;52.138;5.216;2023-11-21T07:49:56;33.3;;;19.91;;
64018;SDS011;66942;52.138;5.216;2023-11-21T07:53:08;33.5;;;19.61;;
64018;SDS011;66942;52.138;5.216;2023-11-21T07:54:44;30.3;;;17.91;;
64018;SDS011;66942;52.138;5.216;2023-11-21T07:56:20;34.1;;;17.8;;
64018;SDS011;66942;52.138;5.216;2023-11-21T07:57:56;15.2;;;12.1;;
64018;SDS011;66942;52.138;5.216;2023-11-21T08:01:09;18.5;;;14.8;;
64018;SDS011;66942;52.138;5.216;2023-11-21T08:02:45;18.5;;;15.2;;
64018;SDS011;66942;52.138;5.216;2023-11-21T08:04:21;19.5;;;15.7;;
64018;SDS011;66942;52.138;5.216;2023-11-21T08:07:34;22.2;;;15.9;;
64018;SDS011;66942;52.138;5.216;2023-11-21T08:09:10;13.3;;;12.0;;
64018;SDS011;66942;52.138;5.216;2023-11-21T08:10:46;19.0;;;14.4;;
64018;SDS011;66942;52.138;5.216;2023-11-21T08:13:59;11.4;;;10.5;;
64018;SDS011;66942;52.138;5.216;2023-11-21T08:15:34;10.1;;;9.31;;
64018;SDS011;66942;52.138;5.216;2023-11-21T08:17:11;8.81;;;8.1;;
64018;SDS011;66942;52.138;5.216;2023-11-21T08:18:47;10.21;;;9.31;;
64018;SDS011;66942;52.138;5.216;2023-11-21T08:21:59;11.5;;;10.3;;
64018;SDS011;66942;52.138;5.216;2023-11-21T08:23:35;12.2;;;10.1;;
64018;SDS011;66942;52.138;5.216;2023-11-21T08:25:11;10.3;;;9.21;;
64018;SDS011;66942;52.138;5.216;2023-11-21T08:28:23;10.3;;;9.21;;
64018;SDS011;66942;52.138;5.216;2023-11-21T08:29:59;8.5;;;7.7;;
64018;SDS011;66942;52.138;5.216;2023-11-21T08:31:35;9.6;;;8.81;;
64018;SDS011;66942;52.138;5.216;2023-11-21T08:34:48;9.4;;;8.6;;
64018;SDS011;66942;52.138;5.216;2023-11-21T08:36:24;9.31;;;8.71;;
64018;SDS011;66942;52.138;5.216;2023-11-21T08:38:02;10.3;;;9.4;;
64018;SDS011;66942;52.138;5.216;2023-11-21T08:41:14;11.6;;;10.7;;
64018;SDS011;66942;52.138;5.216;2023-11-21T08:42:50;10.7;;;9.9;;
64018;SDS011;66942;52.138;5.216;2023-11-21T08:44:26;10.8;;;9.9;;
64018;SDS011;66942;52.138;5.216;2023-11-21T08:46:02;10.7;;;9.9;;
64018;SDS011;66942;52.138;5.216;2023-11-21T08:49:14;10.6;;;9.9;;
64018;SDS011;66942;52.138;5.216;2023-11-21T08:50:50;11.5;;;10.7;;
64018;SDS011;66942;52.138;5.216;2023-11-21T08:52:27;11.8;;;10.7;;
64018;SDS011;66942;52.138;5.216;2023-11-21T08:55:39;11.5;;;10.6;;
64018;SDS011;66942;52.138;5.216;2023-11-21T08:57:15;11.6;;;10.8;;
64018;SDS011;66942;52.138;5.216;2023-11-21T08:58:51;12.4;;;11.1;;
64018;SDS011;66942;52.138;5.216;2023-11-21T09:02:03;11.7;;;10.7;;
64018;SDS011;66942;52.138;5.216;2023-11-21T09:03:39;11.9;;;11.1;;
64018;SDS011;66942;52.138;5.216;2023-11-21T09:05:15;12.4;;;11.4;;
64018;SDS011;66942;52.138;5.216;2023-11-21T09:08:27;12.4;;;11.4;;
64018;SDS011;66942;52.138;5.216;2023-11-21T09:10:04;11.4;;;10.6;;
64018;SDS011;66942;52.138;5.216;2023-11-21T09:11:41;11.4;;;10.6;;
64018;SDS011;66942;52.138;5.216;2023-11-21T09:13:17;12.2;;;11.3;;
64018;SDS011;66942;52.138;5.216;2023-11-21T09:16:29;15.3;;;14.0;;
64018;SDS011;66942;52.138;5.216;2023-11-21T09:18:05;15.4;;;14.0;;
64018;SDS011;66942;52.138;5.216;2023-11-21T09:19:41;13.1;;;12.2;;
64018;SDS011;66942;52.138;5.216;2023-11-21T09:22:53;14.8;;;13.5;;
64018;SDS011;66942;52.138;5.216;2023-11-21T09:24:29;12.6;;;11.6;;
64018;SDS011;66942;52.138;5.216;2023-11-21T09:26:05;14.7;;;13.5;;
64018;SDS011;66942;52.138;5.216;2023-11-21T09:29:18;12.0;;;11.2;;
64018;SDS011;66942;52.138;5.216;2023-11-21T09:30:54;14.4;;;13.4;;
64018;SDS011;66942;52.138;5.216;2023-11-21T09:32:30;13.0;;;12.1;;
64018;SDS011;66942;52.138;5.216;2023-11-21T09:34:06;13.8;;;12.8;;
64018;SDS011;66942;52.138;5.216;2023-11-21T09:37:18;13.3;;;12.1;;
64018;SDS011;66942;52.138;5.216;2023-11-21T09:38:54;13.9;;;12.9;;
64018;SDS011;66942;52.138;5.216;2023-11-21T09:40:30;14.5;;;13.3;;
64018;SDS011;66942;52.138;5.216;2023-11-21T09:43:46;12.9;;;12.0;;
64018;SDS011;66942;52.138;5.216;2023-11-21T09:45:28;12.7;;;11.9;;
64018;SDS011;66942;52.138;5.216;2023-11-21T09:47:08;12.0;;;11.1;;
64018;SDS011;66942;52.138;5.216;2023-11-21T09:48:50;11.7;;;10.9;;
64018;SDS011;66942;52.138;5.216;2023-11-21T09:52:04;11.6;;;10.8;;
64018;SDS011;66942;52.138;5.216;2023-11-21T09:53:44;12.6;;;11.5;;
64018;SDS011;66942;52.138;5.216;2023-11-21T09:55:25;12.7;;;11.7;;
64018;SDS011;66942;52.138;5.216;2023-11-21T09:58:40;11.8;;;10.8;;
64018;SDS011;66942;52.138;5.216;2023-11-21T10:00:16;12.0;;;11.0;;
64018;SDS011;66942;52.138;5.216;2023-11-21T10:01:54;12.4;;;11.4;;
64018;SDS011;66942;52.138;5.216;2023-11-21T10:03:31;10.21;;;9.6;;
64018;SDS011;66942;52.138;5.216;2023-11-21T10:06:47;10.1;;;9.5;;
64018;SDS011;66942;52.138;5.216;2023-11-21T10:08:23;10.5;;;9.81;;
64018;SDS011;66942;52.138;5.216;2023-11-21T10:10:00;10.3;;;9.5;;
64018;SDS011;66942;52.138;5.216;2023-11-21T10:13:16;15.1;;;13.6;;
64018;SDS011;66942;52.138;5.216;2023-11-21T10:14:53;10.6;;;9.81;;
64018;SDS011;66942;52.138;5.216;2023-11-21T10:16:33;12.6;;;11.6;;
64018;SDS011;66942;52.138;5.216;2023-11-21T10:18:09;12.1;;;11.0;;
64018;SDS011;66942;52.138;5.216;2023-11-21T10:21:24;12.4;;;11.4;;
64018;SDS011;66942;52.138;5.216;2023-11-21T10:23:00;11.7;;;10.8;;
64018;SDS011;66942;52.138;5.216;2023-11-21T10:24:37;11.2;;;10.3;;
64018;SDS011;66942;52.138;5.216;2023-11-21T10:27:49;11.7;;;10.8;;
64018;SDS011;66942;52.138;5.216;2023-11-21T10:29:28;11.3;;;10.5;;
64018;SDS011;66942;52.138;5.216;2023-11-21T10:31:06;11.0;;;10.1;;
64018;SDS011;66942;52.138;5.216;2023-11-21T10:32:42;11.0;;;10.1;;
64018;SDS011;66942;52.138;5.216;2023-11-21T10:35:56;10.8;;;10.0;;
64018;SDS011;66942;52.138;5.216;2023-11-21T10:37:32;10.4;;;9.6;;
64018;SDS011;66942;52.138;5.216;2023-11-21T10:39:09;10.8;;;9.9;;
64018;SDS011;66942;52.138;5.216;2023-11-21T10:42:27;9.4;;;8.71;;
64018;SDS011;66942;52.138;5.216;2023-11-21T10:44:03;9.81;;;9.0;;
64018;SDS011;66942;52.138;5.216;2023-11-21T10:45:39;10.1;;;9.31;;
64018;SDS011;66942;52.138;5.216;2023-11-21T10:48:53;11.0;;;10.1;;
64018;SDS011;66942;52.138;5.216;2023-11-21T10:50:28;11.4;;;10.4;;
64018;SDS011;66942;52.138;5.216;2023-11-21T10:52:04;11.8;;;10.7;;
64018;SDS011;66942;52.138;5.216;2023-11-21T10:53:40;10.6;;;9.71;;
64018;SDS011;66942;52.138;5.216;2023-11-21T10:56:56;11.0;;;10.1;;
64018;SDS011;66942;52.138;5.216;2023-11-21T10:58:33;11.2;;;10.3;;
64018;SDS011;66942;52.138;5.216;2023-11-21T11:00:12;10.6;;;9.71;;
64018;SDS011;66942;52.138;5.216;2023-11-21T11:03:28;10.6;;;9.71;;
64018;SDS011;66942;52.138;5.216;2023-11-21T11:05:04;11.8;;;10.9;;
64018;SDS011;66942;52.138;5.216;2023-11-21T11:06:41;10.7;;;9.9;;
64018;SDS011;66942;52.138;5.216;2023-11-21T11:08:18;11.0;;;10.21;;
64018;SDS011;66942;52.138;5.216;2023-11-21T11:11:34;11.6;;;10.7;;
64018;SDS011;66942;52.138;5.216;2023-11-21T11:13:10;11.6;;;10.8;;
64018;SDS011;66942;52.138;5.216;2023-11-21T11:14:47;10.6;;;9.9;;
64018;SDS011;66942;52.138;5.216;2023-11-21T11:18:00;12.4;;;11.4;;
64018;SDS011;66942;52.138;5.216;2023-11-21T11:19:38;10.8;;;10.0;;
64018;SDS011;66942;52.138;5.216;2023-11-21T11:21:18;12.0;;;11.1;;
64018;SDS011;66942;52.138;5.216;2023-11-21T11:23:09;12.8;;;11.8;;
64018;SDS011;66942;52.138;5.216;2023-11-21T11:25:17;12.9;;;11.8;;
64018;SDS011;66942;52.138;5.216;2023-11-21T11:27:06;15.5;;;14.1;;
64018;SDS011;66942;52.138;5.216;2023-11-21T11:30:41;15.5;;;14.3;;
64018;SDS011;66942;52.138;5.216;2023-11-21T11:32:29;16.61;;;15.2;;
64018;SDS011;66942;52.138;5.216;2023-11-21T11:34:20;16.61;;;15.2;;
64018;SDS011;66942;52.138;5.216;2023-11-21T11:36:03;17.0;;;15.5;;
64018;SDS011;66942;52.138;5.216;2023-11-21T11:37:44;17.2;;;15.8;;
64018;SDS011;66942;52.138;5.216;2023-11-21T11:41:05;17.5;;;16.0;;
64018;SDS011;66942;52.138;5.216;2023-11-21T11:42:54;17.8;;;16.2;;
64018;SDS011;66942;52.138;5.216;2023-11-21T11:44:46;17.41;;;15.9;;
64018;SDS011;66942;52.138;5.216;2023-11-21T11:46:40;18.3;;;16.61;;
64018;SDS011;66942;52.138;5.216;2023-11-21T11:48:22;19.7;;;17.8;;
64018;SDS011;66942;52.138;5.216;2023-11-21T11:51:39;18.3;;;16.7;;
64018;SDS011;66942;52.138;5.216;2023-11-21T11:53:15;18.7;;;16.8;;
64018;SDS011;66942;52.138;5.216;2023-11-21T11:54:51;17.91;;;16.3;;
64018;SDS011;66942;52.138;5.216;2023-11-21T11:56:29;18.11;;;16.3;;
64018;SDS011;66942;52.138;5.216;2023-11-21T12:00:06;19.41;;;17.61;;
64018;SDS011;66942;52.138;5.216;2023-11-21T12:01:44;16.5;;;15.1;;
64018;SDS011;66942;52.138;5.216;2023-11-21T12:03:22;19.0;;;17.2;;
64018;SDS011;66942;52.138;5.216;2023-11-21T12:04:58;18.61;;;16.9;;
64018;SDS011;66942;52.138;5.216;2023-11-21T12:08:11;20.5;;;18.3;;
64018;SDS011;66942;52.138;5.216;2023-11-21T12:09:47;18.61;;;16.8;;
64018;SDS011;66942;52.138;5.216;2023-11-21T12:11:28;18.3;;;16.5;;
64018;SDS011;66942;52.138;5.216;2023-11-21T12:13:06;20.41;;;18.2;;
64018;SDS011;66942;52.138;5.216;2023-11-21T12:16:21;18.2;;;16.4;;
64018;SDS011;66942;52.138;5.216;2023-11-21T12:17:57;18.2;;;16.5;;
64018;SDS011;66942;52.138;5.216;2023-11-21T12:19:33;19.5;;;17.41;;
64018;SDS011;66942;52.138;5.216;2023-11-21T12:22:46;16.61;;;15.0;;
64018;SDS011;66942;52.138;5.216;2023-11-21T12:24:23;21.0;;;18.8;;
64018;SDS011;66942;52.138;5.216;2023-11-21T12:25:59;18.61;;;16.9;;
64018;SDS011;66942;52.138;5.216;2023-11-21T12:29:12;20.0;;;18.3;;
64018;SDS011;66942;52.138;5.216;2023-11-21T12:30:48;20.5;;;18.61;;
64018;SDS011;66942;52.138;5.216;2023-11-21T12:32:24;20.41;;;18.41;;
64018;SDS011;66942;52.138;5.216;2023-11-21T12:34:00;22.5;;;20.5;;